Time;durP1;ratioP1;P1;durP2;ratioP2;P2;SDS_P1;SDS_P2;PMS_P1;PMS_P2;Temp;Humidity;BMP_temperature;BMP_pressure;BME280_temperature;BME280_humidity;BME280_pressure;Samples;Min_cycle;Max_cycle;Signal;HPM_P1;HPM_P2
2023/08/18 00:01:36;;;;;;;;;;;;;;;23.44;68.12;97040.27;622876;226;65014;-69
2023/08/18 00:04:04;;;;;;;;;;;;;;;23.43;68.16;97042.13;623048;227;62905;-67
2023/08/18 00:06:31;;;;;;;;;;;;;;;23.43;68.18;97042.13;623647;226;65520;-68
2023/08/18 00:08:59;;;;;;;;;;;;;;;23.44;68.21;97037.59;622610;227;64538;-68
2023/08/18 00:11:26;;;;;;;;;;;;;;;23.43;68.12;97042.13;622438;226;64961;-67
2023/08/18 00:13:54;;;;;;;;;;;;;;;23.44;68.17;97042.95;623479;227;62847;-67
2023/08/18 00:16:21;;;;;;;;;;;;;;;23.44;68.13;97037.59;622772;227;64955;-67
2023/08/18 00:18:49;;;;;;;;;;;;;;;23.44;68.15;97034.91;623450;227;65443;-68
2023/08/18 00:21:16;;;;;;;;;;;;;;;23.44;68.23;97040.27;623309;227;63036;-66
2023/08/18 00:23:44;;;;;;;;;;;;;;;23.44;68.21;97034.91;622714;227;64894;-66
2023/08/18 00:26:12;;;;;;;;;;;;;;;23.44;68.16;97037.59;622455;228;65523;-66
2023/08/18 00:28:39;;;;;;;;;;;;;;;23.43;68.13;97036.77;623735;226;65034;-66
2023/08/18 00:31:08;;;;;;;;;;;;;;;23.44;68.24;97034.91;622488;227;65188;-67
2023/08/18 00:33:36;;;;;;;;;;;;;;;23.43;68.17;97036.77;622526;228;62620;-68
2023/08/18 00:36:04;;;;;;;;;;;;;;;23.43;68.23;97031.40;622471;228;64935;-67
2023/08/18 00:38:31;;;;;;;;;;;;;;;23.43;68.18;97034.08;622493;228;62816;-67
2023/08/18 00:40:59;;;;;;;;;;;;;;;23.43;68.22;97030.61;622433;228;65181;-67
2023/08/18 00:43:26;;;;;;;;;;;;;;;23.43;68.25;97027.92;622863;227;64862;-67
2023/08/18 00:45:54;;;;;;;;;;;;;;;23.44;68.21;97026.86;623252;227;64889;-67
2023/08/18 00:48:24;;;;;;;;;;;;;;;23.42;68.19;97021.77;623758;227;65898;-67
2023/08/18 00:50:52;;;;;;;;;;;;;;;23.44;68.21;97024.17;622411;226;65711;-67
2023/08/18 00:53:19;;;;;;;;;;;;;;;23.42;68.15;97024.45;622757;227;64731;-67
2023/08/18 00:55:48;;;;;;;;;;;;;;;23.43;68.23;97019.88;623498;227;65073;-67
2023/08/18 00:58:16;;;;;;;;;;;;;;;23.43;68.26;97028.72;622516;228;65001;-67
2023/08/18 01:00:44;;;;;;;;;;;;;;;23.43;68.26;97028.72;622456;228;64752;-67
2023/08/18 01:03:12;;;;;;;;;;;;;;;23.43;68.21;97031.40;623334;227;65604;-67
2023/08/18 01:05:40;;;;;;;;;;;;;;;23.42;68.24;97024.45;622870;227;65754;-67
2023/08/18 01:08:08;;;;;;;;;;;;;;;23.42;68.20;97029.02;623149;227;65486;-67
2023/08/18 01:10:41;;;;;;;;;;;;;;;23.42;68.22;97021.77;623605;227;62740;-66
2023/08/18 01:13:13;;;;;;;;;;;;;;;23.43;68.26;97023.35;622343;227;66274;-67
2023/08/18 01:15:42;;;;;;;;;;;;;;;23.42;68.24;97021.77;622492;227;64538;-67
2023/08/18 01:18:11;;;;;;;;;;;;;;;23.43;68.19;97014.52;622409;228;65461;-67
2023/08/18 01:20:38;;;;;;;;;;;;;;;23.43;68.25;97019.88;623680;227;62762;-67
2023/08/18 01:23:08;;;;;;;;;;;;;;;23.42;68.24;97018.30;622586;227;64769;-67
2023/08/18 01:25:36;;;;;;;;;;;;;;;23.43;68.24;97017.20;623715;226;63804;-67
2023/08/18 01:28:04;;;;;;;;;;;;;;;23.43;68.23;97011.83;622588;227;64779;-67
2023/08/18 01:30:33;;;;;;;;;;;;;;;23.43;68.25;97012.63;622874;225;62722;-67
2023/08/18 01:33:09;;;;;;;;;;;;;;;23.42;68.30;97019.09;623212;226;63232;-67
2023/08/18 01:35:37;;;;;;;;;;;;;;;23.42;68.30;97019.09;623657;227;62632;-67
2023/08/18 01:38:06;;;;;;;;;;;;;;;23.42;68.25;97018.30;622607;227;64752;-67
2023/08/18 01:40:34;;;;;;;;;;;;;;;23.42;68.25;97023.66;623678;227;65600;-67
2023/08/18 01:43:03;;;;;;;;;;;;;;;23.42;68.22;97013.72;623816;227;62798;-67
2023/08/18 01:45:31;;;;;;;;;;;;;;;23.42;68.23;97010.25;623627;227;64694;-67
2023/08/18 01:47:59;;;;;;;;;;;;;;;23.43;68.17;97004.58;622688;226;62290;-67
2023/08/18 01:50:27;;;;;;;;;;;;;;;23.43;68.26;97006.47;622541;227;65084;-67
2023/08/18 01:52:54;;;;;;;;;;;;;;;23.43;68.22;97006.47;623094;227;64701;-67
2023/08/18 01:55:23;;;;;;;;;;;;;;;23.42;68.26;97005.67;623245;226;62989;-67
2023/08/18 01:57:50;;;;;;;;;;;;;;;23.42;68.31;96999.52;623152;227;65258;-67
2023/08/18 02:00:18;;;;;;;;;;;;;;;23.42;68.27;97002.99;622521;228;62308;-67
2023/08/18 02:02:45;;;;;;;;;;;;;;;23.42;68.27;97004.88;622498;227;66074;-67
2023/08/18 02:05:13;;;;;;;;;;;;;;;23.43;68.26;97001.11;616667;227;62834;-67
2023/08/18 02:07:41;;;;;;;;;;;;;;;23.43;68.23;97003.78;622834;227;64709;-67
2023/08/18 02:10:09;;;;;;;;;;;;;;;23.42;68.27;97002.99;622445;228;65241;-67
2023/08/18 02:12:36;;;;;;;;;;;;;;;23.43;68.25;96998.42;622553;227;62235;-67
2023/08/18 02:15:04;;;;;;;;;;;;;;;23.42;68.25;96996.84;623032;227;62681;-67
2023/08/18 02:17:31;;;;;;;;;;;;;;;23.41;68.18;97001.41;622477;228;65070;-67
2023/08/18 02:19:59;;;;;;;;;;;;;;;23.42;68.27;96996.84;622495;228;62840;-67
2023/08/18 02:22:27;;;;;;;;;;;;;;;23.42;68.23;97002.99;622526;227;62530;-67
2023/08/18 02:24:54;;;;;;;;;;;;;;;23.42;68.25;96994.16;622459;226;65143;-67
2023/08/18 02:27:22;;;;;;;;;;;;;;;23.42;68.24;96996.84;622565;228;64861;-67
2023/08/18 02:29:51;;;;;;;;;;;;;;;23.41;68.24;96993.36;622491;228;62294;-67
2023/08/18 02:32:18;;;;;;;;;;;;;;;23.43;68.25;97003.78;623354;227;62688;-67
2023/08/18 02:34:46;;;;;;;;;;;;;;;23.42;68.25;96997.63;622788;227;65099;-67
2023/08/18 02:37:15;;;;;;;;;;;;;;;23.42;68.23;96992.27;622535;228;65170;-67
2023/08/18 02:39:42;;;;;;;;;;;;;;;23.42;68.27;96999.52;622523;228;64999;-67
2023/08/18 02:42:10;;;;;;;;;;;;;;;23.42;68.30;97000.31;623239;227;64916;-67
2023/08/18 02:44:37;;;;;;;;;;;;;;;23.42;68.34;97002.99;622816;226;62298;-67
2023/08/18 02:47:05;;;;;;;;;;;;;;;23.42;68.26;96999.52;623734;227;62901;-67
2023/08/18 02:49:33;;;;;;;;;;;;;;;23.42;68.31;97007.56;623413;227;64898;-67
2023/08/18 02:52:01;;;;;;;;;;;;;;;23.42;68.29;97007.56;622602;227;62344;-67
2023/08/18 02:54:29;;;;;;;;;;;;;;;23.42;68.29;97023.66;623386;227;65880;-67
2023/08/18 02:56:57;;;;;;;;;;;;;;;23.41;68.25;97017.50;623544;227;64821;-67
2023/08/18 02:59:27;;;;;;;;;;;;;;;23.42;68.27;97020.97;623538;227;64621;-67
2023/08/18 03:01:54;;;;;;;;;;;;;;;23.41;68.27;97017.50;622754;227;62720;-67
2023/08/18 03:04:23;;;;;;;;;;;;;;;23.41;68.28;97022.86;622793;227;65123;-67
2023/08/18 03:06:51;;;;;;;;;;;;;;;23.41;68.26;97025.55;623220;225;62249;-67
2023/08/18 03:09:20;;;;;;;;;;;;;;;23.41;68.25;97019.39;623784;227;65747;-67
2023/08/18 03:11:47;;;;;;;;;;;;;;;23.41;68.28;97022.07;623865;227;65079;-67
2023/08/18 03:14:15;;;;;;;;;;;;;;;23.42;68.28;97018.30;623078;225;62399;-67
2023/08/18 03:16:43;;;;;;;;;;;;;;;23.41;68.28;97024.75;620715;227;65273;-67
2023/08/18 03:19:11;;;;;;;;;;;;;;;23.40;68.25;97023.93;615386;228;62587;-67
2023/08/18 03:21:39;;;;;;;;;;;;;;;23.42;68.25;97026.34;618888;224;64719;-67
2023/08/18 03:24:07;;;;;;;;;;;;;;;23.40;68.26;97026.61;620738;224;65829;-67
2023/08/18 03:26:34;;;;;;;;;;;;;;;23.41;68.24;97033.59;621304;227;64467;-68
2023/08/18 03:29:02;;;;;;;;;;;;;;;23.41;68.21;97027.44;620231;227;63605;-68
2023/08/18 03:31:30;;;;;;;;;;;;;;;23.41;68.25;97027.44;617455;224;64743;-68
2023/08/18 03:33:58;;;;;;;;;;;;;;;23.41;68.26;97030.12;615774;228;62822;-68
2023/08/18 03:36:25;;;;;;;;;;;;;;;23.41;68.24;97027.44;615482;230;62810;-68
2023/08/18 03:38:53;;;;;;;;;;;;;;;23.41;68.21;97033.59;616487;230;65239;-67
2023/08/18 03:41:22;;;;;;;;;;;;;;;23.41;68.24;97035.48;615751;230;64819;-67
2023/08/18 03:43:49;;;;;;;;;;;;;;;23.40;68.22;97034.66;615597;230;62487;-67
2023/08/18 03:46:19;;;;;;;;;;;;;;;23.41;68.19;97036.27;615376;229;65243;-67
2023/08/18 03:48:47;;;;;;;;;;;;;;;23.41;68.20;97032.80;615268;230;65878;-67
2023/08/18 03:51:15;;;;;;;;;;;;;;;23.40;68.25;97034.66;615497;230;64738;-67
2023/08/18 03:53:43;;;;;;;;;;;;;;;23.40;68.22;97037.34;615437;228;62755;-67
2023/08/18 03:56:11;;;;;;;;;;;;;;;23.41;68.21;97038.16;616225;230;64911;-67
2023/08/18 03:58:38;;;;;;;;;;;;;;;23.40;68.22;97040.02;615904;230;64808;-67
2023/08/18 04:01:08;;;;;;;;;;;;;;;23.40;68.18;97037.34;615424;230;65672;-67
2023/08/18 04:03:36;;;;;;;;;;;;;;;23.41;68.20;97035.48;615886;230;64914;-68
2023/08/18 04:06:05;;;;;;;;;;;;;;;23.40;68.18;97042.70;616043;230;62633;-67
2023/08/18 04:08:37;;;;;;;;;;;;;;;23.41;68.19;97043.53;615425;230;65839;-67
2023/08/18 04:11:04;;;;;;;;;;;;;;;23.40;68.24;97041.91;615421;227;65022;-67
2023/08/18 04:13:32;;;;;;;;;;;;;;;23.40;68.14;97044.59;615462;228;64442;-67
2023/08/18 04:16:00;;;;;;;;;;;;;;;23.40;68.18;97047.27;616067;230;65751;-67
2023/08/18 04:18:27;;;;;;;;;;;;;;;23.40;68.18;97041.91;616353;230;64843;-66
2023/08/18 04:20:55;;;;;;;;;;;;;;;23.40;68.17;97041.91;615472;230;65430;-67
2023/08/18 04:23:23;;;;;;;;;;;;;;;23.40;68.18;97047.27;616338;230;62593;-67
2023/08/18 04:25:51;;;;;;;;;;;;;;;23.40;68.17;97044.59;615952;230;63047;-67
2023/08/18 04:28:19;;;;;;;;;;;;;;;23.40;68.14;97047.27;616197;230;65071;-67
2023/08/18 04:30:46;;;;;;;;;;;;;;;23.40;68.13;97052.64;615450;230;65035;-67
2023/08/18 04:33:21;;;;;;;;;;;;;;;23.39;68.14;97051.84;615562;230;43635;-67
2023/08/18 04:35:49;;;;;;;;;;;;;;;23.39;68.12;97051.84;616168;230;64792;-67
2023/08/18 04:38:17;;;;;;;;;;;;;;;23.40;68.18;97058.00;615437;230;62451;-67
2023/08/18 04:40:45;;;;;;;;;;;;;;;23.39;68.14;97057.20;616019;228;62865;-67
2023/08/18 04:43:13;;;;;;;;;;;;;;;23.39;68.14;97057.20;615939;230;64718;-67
2023/08/18 04:45:41;;;;;;;;;;;;;;;23.38;68.12;97058.30;616677;230;64798;-67
2023/08/18 04:48:10;;;;;;;;;;;;;;;23.39;68.12;97059.89;615707;229;42660;-67
2023/08/18 04:50:38;;;;;;;;;;;;;;;23.39;68.11;97064.45;616289;230;64898;-67
2023/08/18 04:53:06;;;;;;;;;;;;;;;23.39;68.11;97062.57;616115;230;62393;-67
2023/08/18 04:55:34;;;;;;;;;;;;;;;23.39;68.10;97062.57;616764;230;64756;-67
2023/08/18 04:58:02;;;;;;;;;;;;;;;23.39;68.09;97062.57;615551;230;64802;-68
2023/08/18 05:00:29;;;;;;;;;;;;;;;23.40;68.16;97063.36;615467;230;62615;-68
2023/08/18 05:02:57;;;;;;;;;;;;;;;23.39;68.11;97067.14;616701;228;64967;-67
2023/08/18 05:05:25;;;;;;;;;;;;;;;23.39;68.11;97067.14;616256;230;63282;-67
2023/08/18 05:07:52;;;;;;;;;;;;;;;23.39;68.09;97067.14;616182;230;65018;-67
2023/08/18 05:10:20;;;;;;;;;;;;;;;23.39;68.13;97064.45;615922;230;62408;-67
2023/08/18 05:12:47;;;;;;;;;;;;;;;23.38;68.10;97069.03;615405;230;62316;-67
2023/08/18 05:15:16;;;;;;;;;;;;;;;23.38;68.11;97065.52;615462;230;65535;-67
2023/08/18 05:17:44;;;;;;;;;;;;;;;23.38;68.07;97074.39;615926;230;62607;-67
2023/08/18 05:20:11;;;;;;;;;;;;;;;23.38;68.08;97076.25;616005;230;62673;-67
2023/08/18 05:22:39;;;;;;;;;;;;;;;23.39;68.09;97077.87;615457;230;64941;-67
2023/08/18 05:25:07;;;;;;;;;;;;;;;23.38;68.06;97076.25;616048;230;64778;-68
2023/08/18 05:27:36;;;;;;;;;;;;;;;23.38;68.10;97081.61;616895;230;64660;-67
2023/08/18 05:30:04;;;;;;;;;;;;;;;23.38;68.07;97076.25;616180;230;64939;-67
2023/08/18 05:32:32;;;;;;;;;;;;;;;23.38;68.07;97078.94;616692;230;64908;-67
2023/08/18 05:34:59;;;;;;;;;;;;;;;23.38;68.03;97078.94;616360;230;62757;-67
2023/08/18 05:37:27;;;;;;;;;;;;;;;23.38;68.04;97079.75;615413;228;65075;-67
2023/08/18 05:39:56;;;;;;;;;;;;;;;23.37;68.02;97080.03;615424;230;62462;-66
2023/08/18 05:42:23;;;;;;;;;;;;;;;23.38;68.06;97079.75;615432;230;64597;-66
2023/08/18 05:44:51;;;;;;;;;;;;;;;23.38;68.08;97086.98;615446;228;62609;-66
2023/08/18 05:47:18;;;;;;;;;;;;;;;23.37;68.09;97088.07;616726;227;62578;-66
2023/08/18 05:49:46;;;;;;;;;;;;;;;23.38;68.06;97081.61;616703;230;64936;-66
2023/08/18 05:52:14;;;;;;;;;;;;;;;23.37;68.05;97082.71;616426;230;62606;-66
2023/08/18 05:54:41;;;;;;;;;;;;;;;23.37;68.04;97078.14;616595;227;65186;-66
2023/08/18 05:57:09;;;;;;;;;;;;;;;23.38;68.03;97081.61;616038;230;64773;-66
2023/08/18 05:59:36;;;;;;;;;;;;;;;23.37;68.02;97080.82;615651;230;67383;-66
2023/08/18 06:02:04;;;;;;;;;;;;;;;23.38;67.99;97070.89;615318;230;63470;-66
2023/08/18 06:04:31;;;;;;;;;;;;;;;23.37;68.00;97071.98;620462;227;64548;-68
2023/08/18 06:06:59;;;;;;;;;;;;;;;23.37;68.02;97075.45;622999;227;65498;-65
2023/08/18 06:09:27;;;;;;;;;;;;;;;23.37;68.03;97067.41;623347;227;62930;-65
2023/08/18 06:11:54;;;;;;;;;;;;;;;23.38;68.05;97068.20;623038;226;64951;-65
2023/08/18 06:14:22;;;;;;;;;;;;;;;23.37;68.06;97063.94;622843;227;65425;-65
2023/08/18 06:16:49;;;;;;;;;;;;;;;23.37;68.02;97074.66;622419;228;63729;-65
2023/08/18 06:19:25;;;;;;;;;;;;;;;23.37;68.06;97069.30;622487;227;62346;-68
2023/08/18 06:21:59;;;;;;;;;;;;;;;23.36;68.08;97068.51;619540;226;62754;-68
2023/08/18 06:24:31;;;;;;;;;;;;;;;23.37;68.03;97061.25;616411;226;65403;-70
2023/08/18 06:27:11;;;;;;;;;;;;;;;23.37;67.96;97066.63;622847;227;64663;-68
2023/08/18 06:29:41;;;;;;;;;;;;;;;23.38;68.01;97070.89;621548;226;65574;-67
2023/08/18 06:32:14;;;;;;;;;;;;;;;23.37;68.04;97064.73;623907;226;65193;-68
2023/08/18 06:34:58;;;;;;;;;;;;;;;23.36;68.06;97068.51;623819;227;46015;-66
2023/08/18 06:37:33;;;;;;;;;;;;;;;23.37;68.09;97080.03;621987;227;45799;-68
2023/08/18 06:40:06;;;;;;;;;;;;;;;23.37;68.17;97077.34;621293;228;65001;-70
2023/08/18 06:42:37;;;;;;;;;;;;;;;23.36;68.14;97073.87;621673;227;64766;-70
2023/08/18 06:45:15;;;;;;;;;;;;;;;23.36;68.16;97079.23;620248;228;68719;-69
2023/08/18 06:47:43;;;;;;;;;;;;;;;23.35;68.14;97077.62;613896;228;65308;-70
2023/08/18 06:50:11;;;;;;;;;;;;;;;23.35;68.20;97076.83;621418;228;64536;-70
2023/08/18 06:52:52;;;;;;;;;;;;;;;23.36;68.22;97078.44;620789;228;65559;-68
2023/08/18 06:55:17;;;;;;;;;;;;;;;23.35;68.15;97072.25;620878;227;65018;-67
2023/08/18 06:57:50;;;;;;;;;;;;;;;23.35;68.13;97077.62;619866;228;45429;-67
2023/08/18 07:00:27;;;;;;;;;;;;;;;23.36;68.07;97078.44;620467;228;63281;-70
2023/08/18 07:03:05;;;;;;;;;;;;;;;23.36;68.05;97073.08;619276;228;44353;-72
2023/08/18 07:05:39;;;;;;;;;;;;;;;23.35;68.06;97071.46;619894;228;44681;-66
2023/08/18 07:08:11;;;;;;;;;;;;;;;23.35;68.03;97071.46;621046;228;65818;-70
2023/08/18 07:10:49;;;;;;;;;;;;;;;23.35;68.03;97071.46;618786;228;64766;-70
2023/08/18 07:13:20;;;;;;;;;;;;;;;23.35;68.04;97074.14;618195;228;46401;-69
2023/08/18 07:15:58;;;;;;;;;;;;;;;23.35;68.00;97072.25;621112;228;65472;-69
2023/08/18 07:18:28;;;;;;;;;;;;;;;23.34;68.01;97069.88;620851;228;45618;-65
2023/08/18 07:21:03;;;;;;;;;;;;;;;23.34;67.96;97077.92;620119;229;47304;-66
2023/08/18 07:23:37;;;;;;;;;;;;;;;23.33;67.99;97068.29;620941;228;45281;-66
2023/08/18 07:26:08;;;;;;;;;;;;;;;23.34;68.06;97069.88;620591;228;45047;-65
2023/08/18 07:28:48;;;;;;;;;;;;;;;23.35;68.20;97066.09;613231;228;62648;-67
2023/08/18 07:31:21;;;;;;;;;;;;;;;23.36;68.16;97070.40;621238;228;65418;-65
2023/08/18 07:34:09;;;;;;;;;;;;;;;23.36;68.09;97068.51;612088;228;65929;-67
2023/08/18 07:36:45;;;;;;;;;;;;;;;23.38;68.08;97073.57;621708;228;44729;-67
2023/08/18 07:39:23;;;;;;;;;;;;;;;23.37;68.12;97061.25;620844;228;66136;-66
2023/08/18 07:41:48;;;;;;;;;;;;;;;23.37;68.09;97067.41;620474;228;71304;-67
2023/08/18 07:44:19;;;;;;;;;;;;;;;23.39;68.13;97072.50;620100;228;44787;-66
2023/08/18 07:46:52;;;;;;;;;;;;;;;23.39;68.14;97073.30;620655;228;63557;-67
2023/08/18 07:49:35;;;;;;;;;;;;;;;23.39;68.18;97069.82;620751;228;47104;-67
2023/08/18 07:52:01;;;;;;;;;;;;;;;23.39;68.18;97072.50;621402;228;64755;-67
2023/08/18 07:54:33;;;;;;;;;;;;;;;23.39;68.20;97067.94;618546;228;46650;-66
2023/08/18 07:57:10;;;;;;;;;;;;;;;23.39;68.17;97075.98;620054;229;65239;-66
2023/08/18 07:59:44;;;;;;;;;;;;;;;23.40;68.13;97074.88;620618;228;62634;-67
2023/08/18 08:02:18;;;;;;;;;;;;;;;23.40;68.14;97066.84;619952;228;46684;-66
2023/08/18 08:04:58;;;;;;;;;;;;;;;23.42;68.15;97071.93;618638;228;46281;-67
2023/08/18 08:07:26;;;;;;;;;;;;;;;23.41;68.10;97071.14;620032;229;64738;-71
2023/08/18 08:09:56;;;;;;;;;;;;;;;23.41;68.16;97064.98;620079;229;65424;-71
2023/08/18 08:12:23;;;;;;;;;;;;;;;23.42;68.14;97066.56;620559;228;62811;-69
2023/08/18 08:14:51;;;;;;;;;;;;;;;23.43;68.10;97068.16;620699;228;62740;-70
2023/08/18 08:17:18;;;;;;;;;;;;;;;23.43;68.05;97073.52;620037;229;65720;-69
2023/08/18 08:19:46;;;;;;;;;;;;;;;23.43;68.06;97068.16;621558;228;63769;-69
2023/08/18 08:22:13;;;;;;;;;;;;;;;23.44;67.91;97061.73;620892;228;64395;-70
2023/08/18 08:24:41;;;;;;;;;;;;;;;23.45;67.77;97065.99;620968;228;62966;-69
2023/08/18 08:27:08;;;;;;;;;;;;;;;23.45;67.70;97068.67;620979;228;65284;-64
2023/08/18 08:29:36;;;;;;;;;;;;;;;23.45;67.71;97058.73;620064;229;64577;-72
2023/08/18 08:32:03;;;;;;;;;;;;;;;23.46;67.73;97062.22;620365;228;65419;-72
2023/08/18 08:34:31;;;;;;;;;;;;;;;23.46;67.73;97057.67;618411;227;65510;-70
2023/08/18 08:36:59;;;;;;;;;;;;;;;23.47;67.87;97064.63;619896;228;64543;-73
2023/08/18 08:39:26;;;;;;;;;;;;;;;23.47;67.86;97055.78;619705;228;63086;-75
2023/08/18 08:41:53;;;;;;;;;;;;;;;23.48;67.80;97057.38;621084;228;63849;-73
2023/08/18 08:44:21;;;;;;;;;;;;;;;23.48;67.77;97065.42;619385;229;63418;-73
2023/08/18 08:46:49;;;;;;;;;;;;;;;23.48;67.84;97049.33;619631;228;64195;-74
2023/08/18 08:49:17;;;;;;;;;;;;;;;23.48;67.84;97052.01;619820;228;64976;-70
2023/08/18 08:51:46;;;;;;;;;;;;;;;23.51;66.95;97058.69;619427;229;62463;-73
2023/08/18 08:54:16;;;;;;;;;;;;;;;23.52;67.58;97060.27;619430;229;62475;-67
2023/08/18 08:56:44;;;;;;;;;;;;;;;23.52;67.24;97060.27;619795;228;64804;-64
2023/08/18 08:59:12;;;;;;;;;;;;;;;23.53;67.57;97057.31;619382;229;64354;-65
2023/08/18 09:01:39;;;;;;;;;;;;;;;23.57;67.84;97050.31;619461;229;65385;-66
2023/08/18 09:04:08;;;;;;;;;;;;;;;23.59;67.75;97052.69;619451;229;64890;-70
2023/08/18 09:06:36;;;;;;;;;;;;;;;23.60;68.06;97052.41;619404;229;64760;-75
2023/08/18 09:09:03;;;;;;;;;;;;;;;23.64;68.45;97047.27;619738;228;64991;-72
2023/08/18 09:11:45;;;;;;;;;;;;;;;23.64;68.89;97048.06;619596;228;64764;-76
2023/08/18 09:14:13;;;;;;;;;;;;;;;23.66;69.19;97045.89;617985;225;64812;-76
2023/08/18 09:16:44;;;;;;;;;;;;;;;23.67;69.33;97057.42;619091;227;65453;-74
2023/08/18 09:19:14;;;;;;;;;;;;;;;23.68;69.34;97049.09;618681;228;65062;-76
2023/08/18 09:21:42;;;;;;;;;;;;;;;23.68;69.17;97048.27;616627;228;62566;-73
2023/08/18 09:24:09;;;;;;;;;;;;;;;23.69;69.05;97044.52;617758;227;63972;-68
2023/08/18 09:26:37;;;;;;;;;;;;;;;23.70;69.52;97040.74;620509;227;62002;-67
2023/08/18 09:29:04;;;;;;;;;;;;;;;23.72;69.03;97043.19;620363;227;62340;-69
2023/08/18 09:31:32;;;;;;;;;;;;;;;23.73;68.69;97036.72;620210;227;65449;-67
2023/08/18 09:34:02;;;;;;;;;;;;;;;23.74;68.39;97035.66;620843;227;64987;-75
2023/08/18 09:36:30;;;;;;;;;;;;;;;23.74;68.48;97036.44;620856;226;65766;-73
2023/08/18 09:38:58;;;;;;;;;;;;;;;23.75;68.54;97035.34;619703;227;63058;-74
2023/08/18 09:41:25;;;;;;;;;;;;;;;23.81;66.33;97042.23;618367;227;65213;-72
2023/08/18 09:43:53;;;;;;;;;;;;;;;23.81;67.45;97041.44;619649;228;64744;-71
2023/08/18 09:46:22;;;;;;;;;;;;;;;23.81;67.40;97041.44;619541;227;62996;-73
2023/08/18 09:48:50;;;;;;;;;;;;;;;23.82;67.66;97038.48;623242;227;65493;-73
2023/08/18 09:51:19;;;;;;;;;;;;;;;23.83;68.21;97039.28;619224;228;64708;-73
2023/08/18 09:53:49;;;;;;;;;;;;;;;23.83;68.98;97037.39;615576;230;65435;-73
2023/08/18 09:56:18;;;;;;;;;;;;;;;23.83;68.74;97048.12;615359;226;62861;-72
2023/08/18 09:59:03;;;;;;;;;;;;;;;23.83;68.38;97039.28;615222;227;64736;-72
2023/08/18 10:01:32;;;;;;;;;;;;;;;23.83;68.24;97042.75;615915;230;65560;-65
2023/08/18 10:04:01;;;;;;;;;;;;;;;23.83;67.48;97044.64;615968;228;65082;-64
2023/08/18 10:06:30;;;;;;;;;;;;;;;23.82;68.04;97037.69;616518;230;64554;-69
2023/08/18 10:08:59;;;;;;;;;;;;;;;23.84;68.22;97041.66;616532;230;64903;-65
2023/08/18 10:11:27;;;;;;;;;;;;;;;23.83;65.96;97039.28;615913;230;63943;-71
2023/08/18 10:13:55;;;;;;;;;;;;;;;23.85;68.02;97042.48;615804;230;64396;-66
2023/08/18 10:16:23;;;;;;;;;;;;;;;23.87;68.36;97045.65;615712;230;65756;-66
2023/08/18 10:18:57;;;;;;;;;;;;;;;23.86;67.99;97033.33;616225;230;64942;-73
2023/08/18 10:21:24;;;;;;;;;;;;;;;23.87;67.98;97037.59;616929;227;64641;-73
2023/08/18 10:23:53;;;;;;;;;;;;;;;23.88;68.17;97031.16;619374;227;64311;-66
2023/08/18 10:26:22;;;;;;;;;;;;;;;23.88;68.27;97031.16;620024;224;63113;-72
2023/08/18 10:28:50;;;;;;;;;;;;;;;23.85;65.60;97039.80;619522;228;64583;-69
2023/08/18 10:31:17;;;;;;;;;;;;;;;23.81;64.06;97025.34;618928;226;65652;-74
2023/08/18 10:33:46;;;;;;;;;;;;;;;23.81;63.55;97019.97;619444;227;62905;-71
2023/08/18 10:36:15;;;;;;;;;;;;;;;23.84;65.77;97024.76;619734;227;64556;-70
2023/08/18 10:38:43;;;;;;;;;;;;;;;23.84;65.34;97024.76;621680;227;66596;-67
2023/08/18 10:41:12;;;;;;;;;;;;;;;23.88;67.22;97020.42;623522;227;65075;-68
2023/08/18 10:43:38;;;;;;;;;;;;;;;;;;622326;228;62293;-69
2023/08/18 10:46:07;;;;;;;;;;;;;;;23.92;65.98;97032.16;622426;228;61988;-67
2023/08/18 10:48:35;;;;;;;;;;;;;;;23.93;66.91;97031.89;622953;227;62910;-69
2023/08/18 10:51:02;;;;;;;;;;;;;;;23.94;66.70;97035.37;623052;227;64738;-68
2023/08/18 10:53:41;;;;;;;;;;;;;;;23.96;67.70;97021.67;623094;227;63143;-71
2023/08/18 10:56:06;;;;;;;;;;;;;;;23.93;67.31;97023.84;616324;228;65934;-68
2023/08/18 10:58:35;;;;;;;;;;;;;;;23.97;67.59;97020.57;622893;227;63575;-68
2023/08/18 11:01:05;;;;;;;;;;;;;;;23.95;67.49;97020.05;623251;227;65604;-69
2023/08/18 11:03:31;;;;;;;;;;;;;;;23.96;68.18;97010.93;622340;225;63210;-66
2023/08/18 11:05:59;;;;;;;;;;;;;;;23.95;68.58;97010.11;622278;227;62314;-67
2023/08/18 11:08:27;;;;;;;;;;;;;;;23.95;68.68;97012.80;622405;228;65497;-67
2023/08/18 11:10:54;;;;;;;;;;;;;;;23.96;68.40;97011.72;622728;227;65134;-67
2023/08/18 11:13:26;;;;;;;;;;;;;;;23.97;68.13;97005.26;619408;227;63561;-68
2023/08/18 11:15:54;;;;;;;;;;;;;;;23.97;68.79;97007.94;619275;227;63057;-61
2023/08/18 11:18:22;;;;;;;;;;;;;;;23.97;68.90;97007.15;620208;224;62888;-67
2023/08/18 11:20:51;;;;;;;;;;;;;;;23.98;68.80;97006.05;619623;228;62518;-72
2023/08/18 11:23:19;;;;;;;;;;;;;;;23.97;69.29;96997.20;618977;226;64951;-72
2023/08/18 11:25:46;;;;;;;;;;;;;;;23.98;68.75;96998.00;616871;228;65387;-71
2023/08/18 11:28:15;;;;;;;;;;;;;;;23.97;68.09;96997.20;620344;224;64196;-74
2023/08/18 11:30:43;;;;;;;;;;;;;;;23.97;68.12;96997.20;618905;224;61316;-72
2023/08/18 11:33:11;;;;;;;;;;;;;;;23.98;68.14;97008.73;619703;225;63012;-75
2023/08/18 11:35:39;;;;;;;;;;;;;;;23.98;68.35;97001.50;619329;228;64774;-68
2023/08/18 11:38:08;;;;;;;;;;;;;;;23.98;68.07;96995.31;618113;228;65439;-69
2023/08/18 11:40:38;;;;;;;;;;;;;;;23.99;68.23;96994.24;620022;227;63797;-69
2023/08/18 11:43:07;;;;;;;;;;;;;;;23.99;68.17;96996.93;619188;227;64704;-69
2023/08/18 11:45:35;;;;;;;;;;;;;;;23.99;68.46;96989.67;618831;228;63317;-68
2023/08/18 11:48:06;;;;;;;;;;;;;;;23.99;68.20;96984.30;620029;225;65775;-68
2023/08/18 11:50:38;;;;;;;;;;;;;;;24.00;68.70;96991.25;620673;227;63481;-68
2023/08/18 11:53:08;;;;;;;;;;;;;;;23.99;68.56;96984.30;617180;227;64419;-69
2023/08/18 11:55:43;;;;;;;;;;;;;;;24.00;68.51;96990.45;612226;227;66732;-68
2023/08/18 11:58:14;;;;;;;;;;;;;;;24.00;66.99;96990.45;619790;227;62443;-68
2023/08/18 12:00:42;;;;;;;;;;;;;;;24.01;68.09;96984.81;618424;227;62991;-68
2023/08/18 12:03:11;;;;;;;;;;;;;;;24.01;66.77;96981.30;615861;227;61946;-68
2023/08/18 12:05:39;;;;;;;;;;;;;;;24.01;66.80;96992.05;614626;227;64649;-68
2023/08/18 12:08:09;;;;;;;;;;;;;;;24.02;67.35;96993.66;619294;228;66514;-69
2023/08/18 12:10:36;;;;;;;;;;;;;;;24.02;67.26;96999.02;618349;228;65657;-69
2023/08/18 12:13:03;;;;;;;;;;;;;;;24.02;67.36;96994.45;616342;228;64649;-68
2023/08/18 12:15:32;;;;;;;;;;;;;;;24.04;67.48;96988.80;615191;230;65428;-69
2023/08/18 12:17:59;;;;;;;;;;;;;;;24.03;67.27;97003.30;616069;230;63234;-69
2023/08/18 12:20:27;;;;;;;;;;;;;;;24.03;66.59;97001.41;615665;230;64332;-69
2023/08/18 12:22:55;;;;;;;;;;;;;;;24.04;68.08;96994.17;615611;228;65470;-69
2023/08/18 12:25:22;;;;;;;;;;;;;;;24.04;67.70;97013.76;616074;230;65933;-69
2023/08/18 12:27:50;;;;;;;;;;;;;;;24.04;67.52;97004.91;615327;230;62434;-69
2023/08/18 12:30:19;;;;;;;;;;;;;;;24.03;67.62;97001.41;615360;230;65445;-74
2023/08/18 12:32:48;;;;;;;;;;;;;;;24.04;67.42;97008.39;616013;230;64994;-74
2023/08/18 12:35:15;;;;;;;;;;;;;;;24.04;67.40;97003.02;616361;230;64586;-74
2023/08/18 12:37:43;;;;;;;;;;;;;;;24.05;67.21;97001.12;616705;227;65159;-74
2023/08/18 12:40:11;;;;;;;;;;;;;;;24.06;67.43;97005.39;616367;230;62899;-75
2023/08/18 12:42:39;;;;;;;;;;;;;;;24.05;67.10;97004.60;615470;230;64790;-75
2023/08/18 12:45:07;;;;;;;;;;;;;;;24.05;66.96;97004.60;615264;230;66637;-74
2023/08/18 12:47:35;;;;;;;;;;;;;;;24.06;67.17;97008.91;615296;230;62843;-75
2023/08/18 12:50:02;;;;;;;;;;;;;;;24.07;67.54;97002.43;616684;228;64734;-75
2023/08/18 12:52:30;;;;;;;;;;;;;;;24.07;67.62;96996.27;615727;230;65390;-74
2023/08/18 12:54:57;;;;;;;;;;;;;;;24.07;67.55;97001.64;615962;230;65279;-74
2023/08/18 12:57:25;;;;;;;;;;;;;;;24.07;67.34;96991.70;615351;230;64679;-74